Thomson Majesty — 9HA2188 — position and weather

sailwx.info

Track history (hours):
 
Tides and Currents Weather Stations Pressure Air Temp Water Temp Dewpoint Dewpoint Depression Visibility Wind Speed Wind Dir Waves Ship Positions

Thomson Majesty

Last reported at 2017-Oct-22 15:28 UTC. Time now 2017-Oct-22 15:34 UTC.
Position N 37°36' W 000°59'.

Length 207 m; draft 6.2 m.

Type: Ship. MMSI: 248124000.

Date/timePositionNaut miles runAvg speedWind from/ knotsBaromVisibWave heightAir tempDewpointWater temp
2017-Oct-22 15:28N 37°36' W 000°59'0 0.0
2017-Oct-22 14:58N 37°36' W 000°59'0 0.0
2017-Oct-22 14:28N 37°36' W 000°59'0 0.0
2017-Oct-22 13:58N 37°36' W 000°59'0 0.0
2017-Oct-22 13:28N 37°36' W 000°59'0 0.0
2017-Oct-22 12:52N 37°36' W 000°59'0 0.0
2017-Oct-22 12:22N 37°36' W 000°59'0 0.0
2017-Oct-22 11:58N 37°36' W 000°59'0 0.0
2017-Oct-22 11:04N 37°36' W 000°59'0 0.0
2017-Oct-22 10:58N 37°36' W 000°59'0 0.0
2017-Oct-22 10:28N 37°36' W 000°59'0 0.0
2017-Oct-22 09:58N 37°36' W 000°59'0 0.0
2017-Oct-22 09:22N 37°36' W 000°59'0 0.0
2017-Oct-22 08:58N 37°36' W 000°59'0 0.0
2017-Oct-22 08:28N 37°36' W 000°59'0 0.0
2017-Oct-22 07:46N 37°36' W 000°59'0 0.0
2017-Oct-22 07:16N 37°36' W 000°59'0 0.0
2017-Oct-22 06:58N 37°36' W 000°59'0 0.0
2017-Oct-22 06:28N 37°36' W 000°59'0 0.0
2017-Oct-22 05:46N 37°36' W 000°59'0 0.0
2017-Oct-22 05:28N 37°36' W 000°59'3 5.0
2017-Oct-22 04:58N 37°33' W 001°00'715.6
2017-Oct-22 04:30N 37°28' W 001°06'21115.7
2017-Oct-21 15:04N 36°06' W 005°09'119.0
2017-Oct-21 15:00N 36°06' W 005°11'10 8.4
2017-Oct-21 13:51N 36°09' W 005°22'0 0.0
2017-Oct-21 13:27N 36°09' W 005°22'0 0.0
2017-Oct-21 05:28N 36°09' W 005°22'4 5.4
2017-Oct-21 04:49N 36°05' W 005°23'413.2
2017-Oct-21 04:30N 36°01' W 005°23'34 0.7
2017-Oct-19 02:47N 35°57' W 006°05'1015.0
2017-Oct-19 02:07N 35°58' W 005°52'215.4
2017-Oct-19 02:00N 35°58' W 005°50'915.1
2017-Oct-19 01:23N 35°58' W 005°39'615.6
2017-Oct-19 01:01N 35°59' W 005°32'714.9
2017-Oct-19 00:31N 36°01' W 005°23'714.2
2017-Oct-19 00:01N 36°02' W 005°14'815.4
2017-Oct-18 23:30N 36°04' W 005°05'19816.4
2017-Oct-18 11:27N 37°01' W 001°09'817.8
2017-Oct-18 11:00N 37°06' W 001°01'917.5
2017-Oct-18 10:30N 37°11' W 000°52'917.4
2017-Oct-18 10:00N 37°16' W 000°44'1117.7
2017-Oct-18 09:23N 37°23' W 000°33'717.9
2017-Oct-18 09:00N 37°27' W 000°25'917.9
2017-Oct-18 08:30N 37°32' W 000°16'917.6
2017-Oct-18 07:59N 37°37' W 000°07'4216.9
2017-Oct-18 05:28N 38°02' E 000°37'1316.7
2017-Oct-18 04:40N 38°10' E 000°50'317.0
2017-Oct-18 04:29N 38°12' E 000°53'817.0
2017-Oct-18 04:00N 38°17' E 001°02'917.0
2017-Oct-18 03:28N 38°22' E 001°11'817.2
2017-Oct-18 03:00N 38°27' E 001°19'3217.0
2017-Oct-18 01:07N 38°48' E 001°51'217.2
2017-Oct-18 01:00N 38°49' E 001°52'2917.7
2017-Oct-17 23:21N 39°11' E 002°18'617.6
2017-Oct-17 23:00N 39°15' E 002°23'917.5
2017-Oct-17 22:30N 39°22' E 002°30'917.3
2017-Oct-17 22:00N 39°29' E 002°37'4 7.5
2017-Oct-17 21:28N 39°33' E 002°38'0 0.0
2017-Oct-17 20:58N 39°33' E 002°38'0 0.0
2017-Oct-17 20:28N 39°33' E 002°38'0 0.0
2017-Oct-17 19:58N 39°33' E 002°38'0 0.0
2017-Oct-17 19:28N 39°33' E 002°38'0 0.0
2017-Oct-17 18:58N 39°33' E 002°38'0 0.0
2017-Oct-17 18:28N 39°33' E 002°38'0 0.0
2017-Oct-17 17:58N 39°33' E 002°38'0 0.0
2017-Oct-17 17:28N 39°33' E 002°38'0 0.0
2017-Oct-17 16:58N 39°33' E 002°38'0 0.0
2017-Oct-17 16:28N 39°33' E 002°38'0 0.0
2017-Oct-17 15:58N 39°33' E 002°38'0 0.0
2017-Oct-17 15:28N 39°33' E 002°38'0 0.0
2017-Oct-17 14:58N 39°33' E 002°38'0 0.0
2017-Oct-17 14:28N 39°33' E 002°38'0 0.0
2017-Oct-17 13:28N 39°33' E 002°38'0 0.0
2017-Oct-17 12:58N 39°33' E 002°38'0 0.0
2017-Oct-17 12:28N 39°33' E 002°38'0 0.0
2017-Oct-17 11:58N 39°33' E 002°38'0 0.0
2017-Oct-17 11:28N 39°33' E 002°38'0 0.0
2017-Oct-17 10:58N 39°33' E 002°38'0 0.0
2017-Oct-17 10:28N 39°33' E 002°38'0 0.0
2017-Oct-17 09:58N 39°33' E 002°38'0 0.0
2017-Oct-17 09:28N 39°33' E 002°38'0 0.0
2017-Oct-17 08:58N 39°33' E 002°38'0 0.0
2017-Oct-17 08:28N 39°33' E 002°38'0 0.0
2017-Oct-17 07:58N 39°33' E 002°38'0 0.0
2017-Oct-17 07:28N 39°33' E 002°38'0 0.0
2017-Oct-17 06:58N 39°33' E 002°38'39 4.3
2017-Oct-16 21:59N 39°17' E 003°24'710.8
2017-Oct-16 21:20N 39°21' E 003°31'310.3
2017-Oct-16 21:00N 39°23' E 003°35'55 3.6
2017-Oct-16 05:46N 39°56' E 004°31'9915.4
2017-Oct-15 23:22N 40°43' E 006°25'4315.0
2017-Oct-15 20:29N 41°03' E 007°16'815.5
2017-Oct-15 19:59N 41°07' E 007°25'815.4
2017-Oct-15 19:28N 41°11' E 007°34'1515.0
2017-Oct-15 18:29N 41°17' E 007°52'715.0
2017-Oct-15 18:00N 41°21' E 008°00'57 3.5
2017-Oct-15 01:32N 41°18' E 009°16'114.8
2017-Oct-15 01:29N 41°19' E 009°17'814.9
2017-Oct-15 00:56N 41°24' E 009°26'615.0
2017-Oct-15 00:30N 41°26' E 009°34'1014.5
2017-Oct-14 23:51N 41°30' E 009°46'515.1
2017-Oct-14 23:30N 41°32' E 009°52'814.9
2017-Oct-14 23:00N 41°35' E 010°01'714.5
2017-Oct-14 22:30N 41°37' E 010°10'914.3
2017-Oct-14 21:53N 41°41' E 010°21'814.2
2017-Oct-14 21:21N 41°44' E 010°30'514.1
2017-Oct-14 21:00N 41°46' E 010°36'714.1
2017-Oct-14 20:30N 41°48' E 010°45'814.2
2017-Oct-14 19:56N 41°51' E 010°55'614.4
2017-Oct-14 19:30N 41°54' E 011°03'714.4
2017-Oct-14 19:00N 41°57' E 011°12'914.5
2017-Oct-14 18:25N 41°60' E 011°22'714.6
2017-Oct-14 17:55N 42°03' E 011°32'814.7
2017-Oct-14 17:23N 42°06' E 011°41'4 2.6
2017-Oct-14 15:53N 42°06' E 011°46'0 0.0
2017-Oct-14 15:26N 42°06' E 011°46'0 0.0
2017-Oct-14 10:23N 42°06' E 011°46'0 0.0
2017-Oct-14 09:59N 42°06' E 011°46'0 0.0
2017-Oct-14 04:29N 42°06' E 011°46'13112.4
2017-Oct-13 17:59N 40°33' E 013°49'715.7
2017-Oct-13 17:30N 40°35' E 013°58'815.6
2017-Oct-13 17:00N 40°37' E 014°08'816.0
2017-Oct-13 16:30N 40°39' E 014°19'3 6.4
2017-Oct-13 16:00N 40°38' E 014°23'0 0.1
2017-Oct-13 15:28N 40°38' E 014°23'0 0.0
2017-Oct-13 14:49N 40°38' E 014°23'0 0.0
2017-Oct-13 14:19N 40°38' E 014°23'0 0.0
2017-Oct-13 13:49N 40°38' E 014°23'0 0.1
2017-Oct-13 13:19N 40°38' E 014°23'0 0.0
2017-Oct-13 12:52N 40°38' E 014°23'0 0.0
2017-Oct-13 12:22N 40°38' E 014°23'0 0.0
2017-Oct-13 11:52N 40°38' E 014°23'0 0.0
2017-Oct-13 11:22N 40°38' E 014°23'0 0.0
2017-Oct-13 10:52N 40°38' E 014°23'0 0.0
2017-Oct-13 10:25N 40°38' E 014°23'0 0.0
2017-Oct-13 09:55N 40°38' E 014°23'0 0.0
2017-Oct-13 09:25N 40°38' E 014°23'0 0.0
2017-Oct-13 08:40N 40°38' E 014°23'0 0.0
2017-Oct-13 08:25N 40°38' E 014°23'0 0.0
2017-Oct-13 07:58N 40°38' E 014°23'0 0.0
2017-Oct-13 07:28N 40°38' E 014°23'0 0.0
2017-Oct-13 06:58N 40°38' E 014°23'0 0.0
2017-Oct-13 06:28N 40°38' E 014°23'11911.2
2017-Oct-12 19:46N 38°59' E 012°57'1014.7
2017-Oct-12 19:05N 38°50' E 012°51'214.7
2017-Oct-12 18:57N 38°48' E 012°50'714.5
2017-Oct-12 18:30N 38°43' E 012°45'814.7
2017-Oct-12 17:59N 38°36' E 012°40'814.7
2017-Oct-12 17:26N 38°29' E 012°35'714.6
2017-Oct-12 16:59N 38°24' E 012°31'915.1
2017-Oct-12 16:23N 38°16' E 012°26'  
Track history (hours):
 
Tides and Currents Weather Stations Pressure Air Temp Water Temp Dewpoint Dewpoint Depression Visibility Wind Speed Wind Dir Waves Ship Positions

Thomson Majesty

Last reported at 2017-Oct-22 15:28 UTC. Time now 2017-Oct-22 15:34 UTC.
Position N 37°36' W 000°59'.

Length 207 m; draft 6.2 m.

Type: Ship. MMSI: 248124000.

Date/timePositionNaut miles runAvg speedWind from/ knotsBaromVisibWave heightAir tempDewpointWater temp
2017-Oct-22 15:28N 37°36' W 000°59'0 0.0
2017-Oct-22 14:58N 37°36' W 000°59'0 0.0
2017-Oct-22 14:28N 37°36' W 000°59'0 0.0
2017-Oct-22 13:58N 37°36' W 000°59'0 0.0
2017-Oct-22 13:28N 37°36' W 000°59'0 0.0
2017-Oct-22 12:52N 37°36' W 000°59'0 0.0
2017-Oct-22 12:22N 37°36' W 000°59'0 0.0
2017-Oct-22 11:58N 37°36' W 000°59'0 0.0
2017-Oct-22 11:04N 37°36' W 000°59'0 0.0
2017-Oct-22 10:58N 37°36' W 000°59'0 0.0
2017-Oct-22 10:28N 37°36' W 000°59'0 0.0
2017-Oct-22 09:58N 37°36' W 000°59'0 0.0
2017-Oct-22 09:22N 37°36' W 000°59'0 0.0
2017-Oct-22 08:58N 37°36' W 000°59'0 0.0
2017-Oct-22 08:28N 37°36' W 000°59'0 0.0
2017-Oct-22 07:46N 37°36' W 000°59'0 0.0
2017-Oct-22 07:16N 37°36' W 000°59'0 0.0
2017-Oct-22 06:58N 37°36' W 000°59'0 0.0
2017-Oct-22 06:28N 37°36' W 000°59'0 0.0
2017-Oct-22 05:46N 37°36' W 000°59'0 0.0
2017-Oct-22 05:28N 37°36' W 000°59'3 5.0
2017-Oct-22 04:58N 37°33' W 001°00'715.6
2017-Oct-22 04:30N 37°28' W 001°06'21115.7
2017-Oct-21 15:04N 36°06' W 005°09'119.0
2017-Oct-21 15:00N 36°06' W 005°11'10 8.4
2017-Oct-21 13:51N 36°09' W 005°22'0 0.0
2017-Oct-21 13:27N 36°09' W 005°22'0 0.0
2017-Oct-21 05:28N 36°09' W 005°22'4 5.4
2017-Oct-21 04:49N 36°05' W 005°23'413.2
2017-Oct-21 04:30N 36°01' W 005°23'34 0.7
2017-Oct-19 02:47N 35°57' W 006°05'1015.0
2017-Oct-19 02:07N 35°58' W 005°52'215.4
2017-Oct-19 02:00N 35°58' W 005°50'915.1
2017-Oct-19 01:23N 35°58' W 005°39'615.6
2017-Oct-19 01:01N 35°59' W 005°32'714.9
2017-Oct-19 00:31N 36°01' W 005°23'714.2
2017-Oct-19 00:01N 36°02' W 005°14'815.4
2017-Oct-18 23:30N 36°04' W 005°05'19816.4
2017-Oct-18 11:27N 37°01' W 001°09'817.8
2017-Oct-18 11:00N 37°06' W 001°01'917.5
2017-Oct-18 10:30N 37°11' W 000°52'917.4
2017-Oct-18 10:00N 37°16' W 000°44'1117.7
2017-Oct-18 09:23N 37°23' W 000°33'717.9
2017-Oct-18 09:00N 37°27' W 000°25'917.9
2017-Oct-18 08:30N 37°32' W 000°16'917.6
2017-Oct-18 07:59N 37°37' W 000°07'4216.9
2017-Oct-18 05:28N 38°02' E 000°37'1316.7
2017-Oct-18 04:40N 38°10' E 000°50'317.0
2017-Oct-18 04:29N 38°12' E 000°53'817.0
2017-Oct-18 04:00N 38°17' E 001°02'917.0
2017-Oct-18 03:28N 38°22' E 001°11'817.2
2017-Oct-18 03:00N 38°27' E 001°19'3217.0
2017-Oct-18 01:07N 38°48' E 001°51'217.2
2017-Oct-18 01:00N 38°49' E 001°52'2917.7
2017-Oct-17 23:21N 39°11' E 002°18'617.6
2017-Oct-17 23:00N 39°15' E 002°23'917.5
2017-Oct-17 22:30N 39°22' E 002°30'917.3
2017-Oct-17 22:00N 39°29' E 002°37'4 7.5
2017-Oct-17 21:28N 39°33' E 002°38'0 0.0
2017-Oct-17 20:58N 39°33' E 002°38'0 0.0
2017-Oct-17 20:28N 39°33' E 002°38'0 0.0
2017-Oct-17 19:58N 39°33' E 002°38'0 0.0
2017-Oct-17 19:28N 39°33' E 002°38'0 0.0
2017-Oct-17 18:58N 39°33' E 002°38'0 0.0
2017-Oct-17 18:28N 39°33' E 002°38'0 0.0
2017-Oct-17 17:58N 39°33' E 002°38'0 0.0
2017-Oct-17 17:28N 39°33' E 002°38'0 0.0
2017-Oct-17 16:58N 39°33' E 002°38'0 0.0
2017-Oct-17 16:28N 39°33' E 002°38'0 0.0
2017-Oct-17 15:58N 39°33' E 002°38'0 0.0
2017-Oct-17 15:28N 39°33' E 002°38'0 0.0
2017-Oct-17 14:58N 39°33' E 002°38'0 0.0
2017-Oct-17 14:28N 39°33' E 002°38'0 0.0
2017-Oct-17 13:28N 39°33' E 002°38'0 0.0
2017-Oct-17 12:58N 39°33' E 002°38'0 0.0
2017-Oct-17 12:28N 39°33' E 002°38'0 0.0
2017-Oct-17 11:58N 39°33' E 002°38'0 0.0
2017-Oct-17 11:28N 39°33' E 002°38'0 0.0
2017-Oct-17 10:58N 39°33' E 002°38'0 0.0
2017-Oct-17 10:28N 39°33' E 002°38'0 0.0
2017-Oct-17 09:58N 39°33' E 002°38'0 0.0
2017-Oct-17 09:28N 39°33' E 002°38'0 0.0
2017-Oct-17 08:58N 39°33' E 002°38'0 0.0
2017-Oct-17 08:28N 39°33' E 002°38'0 0.0
2017-Oct-17 07:58N 39°33' E 002°38'0 0.0
2017-Oct-17 07:28N 39°33' E 002°38'0 0.0
2017-Oct-17 06:58N 39°33' E 002°38'39 4.3
2017-Oct-16 21:59N 39°17' E 003°24'710.8
2017-Oct-16 21:20N 39°21' E 003°31'310.3
2017-Oct-16 21:00N 39°23' E 003°35'55 3.6
2017-Oct-16 05:46N 39°56' E 004°31'9915.4
2017-Oct-15 23:22N 40°43' E 006°25'4315.0
2017-Oct-15 20:29N 41°03' E 007°16'815.5
2017-Oct-15 19:59N 41°07' E 007°25'815.4
2017-Oct-15 19:28N 41°11' E 007°34'1515.0
2017-Oct-15 18:29N 41°17' E 007°52'715.0
2017-Oct-15 18:00N 41°21' E 008°00'57 3.5
2017-Oct-15 01:32N 41°18' E 009°16'114.8
2017-Oct-15 01:29N 41°19' E 009°17'814.9
2017-Oct-15 00:56N 41°24' E 009°26'615.0
2017-Oct-15 00:30N 41°26' E 009°34'1014.5
2017-Oct-14 23:51N 41°30' E 009°46'515.1
2017-Oct-14 23:30N 41°32' E 009°52'814.9
2017-Oct-14 23:00N 41°35' E 010°01'714.5
2017-Oct-14 22:30N 41°37' E 010°10'914.3
2017-Oct-14 21:53N 41°41' E 010°21'814.2
2017-Oct-14 21:21N 41°44' E 010°30'514.1
2017-Oct-14 21:00N 41°46' E 010°36'714.1
2017-Oct-14 20:30N 41°48' E 010°45'814.2
2017-Oct-14 19:56N 41°51' E 010°55'614.4
2017-Oct-14 19:30N 41°54' E 011°03'714.4
2017-Oct-14 19:00N 41°57' E 011°12'914.5
2017-Oct-14 18:25N 41°60' E 011°22'714.6
2017-Oct-14 17:55N 42°03' E 011°32'814.7
2017-Oct-14 17:23N 42°06' E 011°41'4 2.6
2017-Oct-14 15:53N 42°06' E 011°46'0 0.0
2017-Oct-14 15:26N 42°06' E 011°46'0 0.0
2017-Oct-14 10:23N 42°06' E 011°46'0 0.0
2017-Oct-14 09:59N 42°06' E 011°46'0 0.0
2017-Oct-14 04:29N 42°06' E 011°46'13112.4
2017-Oct-13 17:59N 40°33' E 013°49'715.7
2017-Oct-13 17:30N 40°35' E 013°58'815.6
2017-Oct-13 17:00N 40°37' E 014°08'816.0
2017-Oct-13 16:30N 40°39' E 014°19'3 6.4
2017-Oct-13 16:00N 40°38' E 014°23'0 0.1
2017-Oct-13 15:28N 40°38' E 014°23'0 0.0
2017-Oct-13 14:49N 40°38' E 014°23'0 0.0
2017-Oct-13 14:19N 40°38' E 014°23'0 0.0
2017-Oct-13 13:49N 40°38' E 014°23'0 0.1
2017-Oct-13 13:19N 40°38' E 014°23'0 0.0
2017-Oct-13 12:52N 40°38' E 014°23'0 0.0
2017-Oct-13 12:22N 40°38' E 014°23'0 0.0
2017-Oct-13 11:52N 40°38' E 014°23'0 0.0
2017-Oct-13 11:22N 40°38' E 014°23'0 0.0
2017-Oct-13 10:52N 40°38' E 014°23'0 0.0
2017-Oct-13 10:25N 40°38' E 014°23'0 0.0
2017-Oct-13 09:55N 40°38' E 014°23'0 0.0
2017-Oct-13 09:25N 40°38' E 014°23'0 0.0
2017-Oct-13 08:40N 40°38' E 014°23'0 0.0
2017-Oct-13 08:25N 40°38' E 014°23'0 0.0
2017-Oct-13 07:58N 40°38' E 014°23'0 0.0
2017-Oct-13 07:28N 40°38' E 014°23'0 0.0
2017-Oct-13 06:58N 40°38' E 014°23'0 0.0
2017-Oct-13 06:28N 40°38' E 014°23'11911.2
2017-Oct-12 19:46N 38°59' E 012°57'1014.7
2017-Oct-12 19:05N 38°50' E 012°51'214.7
2017-Oct-12 18:57N 38°48' E 012°50'714.5
2017-Oct-12 18:30N 38°43' E 012°45'814.7
2017-Oct-12 17:59N 38°36' E 012°40'814.7
2017-Oct-12 17:26N 38°29' E 012°35'714.6
2017-Oct-12 16:59N 38°24' E 012°31'915.1
2017-Oct-12 16:23N 38°16' E 012°26'  

Dump ship's entire track history